This is the latest recevied weather packets stored in our database for station/object KB0Y. If no packets are shown the sender has not sent any weather packets the latest 1 day(s).
| Time | Temp. | Humidity | Pressure | Rain* | Wind** | Luminosity | Snow |
|---|---|---|---|---|---|---|---|
| 1777992952 | 24.44° C | 74% | 1021 hPa | 0 mm | 3.13 m/s, 191° | 177 W/m² | - |
| 1777992651 | 24.44° C | 75% | 1021 hPa | 0 mm | 1.34 m/s, 186° | 419 W/m² | - |
| 1777992348 | 25° C | 73% | 1021 hPa | 0 mm | 2.68 m/s, 191° | 209 W/m² | - |
| 1777992045 | 25° C | 75% | 1021.3 hPa | 0 mm | 2.24 m/s, 186° | 465 W/m² | - |
| 1777991743 | 23.33° C | 76% | 1021 hPa | 0 mm | 1.34 m/s, 187° | 421 W/m² | - |
| 1777991440 | 23.33° C | 76% | 1021 hPa | 0 mm | 1.34 m/s, 187° | 421 W/m² | - |
| 1777991137 | 23.33° C | 75% | 1021 hPa | 0 mm | 1.79 m/s, 189° | 430 W/m² | - |
| 1777990834 | 23.33° C | 77% | 1021 hPa | 0 mm | 0.89 m/s, 190° | 355 W/m² | - |
| 1777990531 | 22.22° C | 78% | 1021 hPa | 0 mm | 3.13 m/s, 187° | 372 W/m² | - |
| 1777990228 | 22.22° C | 78% | 1021 hPa | 0 mm | 3.13 m/s, 187° | 372 W/m² | - |
| 1777989925 | 22.22° C | 77% | 1021 hPa | 0 mm | 4.02 m/s, 186° | 374 W/m² | - |
| 1777989622 | 22.22° C | 77% | 1021 hPa | 0 mm | 1.79 m/s, 194° | 359 W/m² | - |
| 1777989318 | 22.22° C | 79% | 1021 hPa | 0 mm | 4.02 m/s, 190° | 330 W/m² | - |
| 1777989015 | 22.22° C | 79% | 1021 hPa | 0 mm | 3.13 m/s, 187° | 344 W/m² | - |
| 1777988711 | 22.22° C | 79% | 1021 hPa | 0 mm | 4.02 m/s, 188° | 339 W/m² | - |
| 1777988408 | 20.56° C | 80% | 1021 hPa | 0 mm | 2.24 m/s, 189° | 308 W/m² | - |
| 1777988105 | 20.56° C | 79% | 1021 hPa | 0 mm | 2.68 m/s, 188° | 306 W/m² | - |
| 1777987800 | 20.56° C | 81% | 1020.6 hPa | 0 mm | 4.47 m/s, 190° | 295 W/m² | - |
| 1777987497 | 20.56° C | 82% | 1020.6 hPa | 0 mm | 2.68 m/s, 191° | 276 W/m² | - |
| 1777987195 | 20° C | 82% | 1020.6 hPa | 0 mm | 4.02 m/s, 192° | 267 W/m² | - |
| 1777986891 | 20° C | 84% | 1020.6 hPa | 0 mm | 3.13 m/s, 198° | 256 W/m² | - |
| 1777986590 | 20° C | 83% | 1020.3 hPa | 0 mm | 3.58 m/s, 197° | 247 W/m² | - |
| 1777986287 | 17.22° C | 84% | 1020.6 hPa | 0 mm | 2.68 m/s, 199° | 227 W/m² | - |
| 1777985984 | 17.22° C | 84% | 1020.6 hPa | 0 mm | 2.68 m/s, 199° | 227 W/m² | - |
| 1777985682 | 16.67° C | 84% | 1020.3 hPa | 0 mm | 4.02 m/s, 197° | 212 W/m² | - |
* Rain latest hour (hover to see other rain measurements)
** Current wind speed in m/s (hover to see current wind gust speed)